Time;durP1;ratioP1;P1;durP2;ratioP2;P2;SDS_P1;SDS_P2;PMS_P1;PMS_P2;Temp;Humidity;BMP_temperature;BMP_pressure;BME280_temperature;BME280_humidity;BME280_pressure;Samples;Min_cycle;Max_cycle;Signal;HPM_P1;HPM_P2
2022/12/08 00:00:30;;;;;;;3.50;2.30;;;;;;;0.37;82.04;96156.27;105651;1294;22467;-88
2022/12/08 00:03:11;;;;;;;4.50;2.50;;;;;;;0.37;81.96;96157.19;105699;1278;22632;-89
2022/12/08 00:11:19;;;;;;;3.10;2.50;;;;;;;0.41;81.86;96155.71;105673;1302;22461;-88
2022/12/08 00:13:50;;;;;;;3.10;1.80;;;;;;;0.44;81.87;96155.27;105580;1288;23827;-88
2022/12/08 00:16:21;;;;;;;4.40;2.50;;;;;;;0.46;81.91;96158.25;105688;1303;22479;-88
2022/12/08 00:18:53;;;;;;;4.90;3.10;;;;;;;0.47;82.02;96160.05;105808;1301;23784;-88
2022/12/08 00:21:21;;;;;;;4.40;2.70;;;;;;;0.43;82.28;96157.82;105846;1301;25327;-88
2022/12/08 00:23:50;;;;;;;4.50;3.00;;;;;;;0.44;82.11;96159.34;105817;1301;22525;-88
2022/12/08 00:26:18;;;;;;;4.30;2.30;;;;;;;0.46;82.36;96163.04;105847;1293;22454;-88
2022/12/08 00:28:47;;;;;;;4.60;2.80;;;;;;;0.43;82.42;96164.52;105760;1282;43123;-89
2022/12/08 00:31:16;;;;;;;6.40;3.80;;;;;;;0.44;82.50;96165.44;105844;1290;22477;-89
2022/12/08 00:33:46;;;;;;;2.80;2.10;;;;;;;0.45;82.74;96172.10;105870;1300;24286;-89
2022/12/08 00:36:17;;;;;;;4.80;3.30;;;;;;;0.45;82.69;96167.02;105846;1290;22465;-90
2022/12/08 00:38:47;;;;;;;7.50;4.10;;;;;;;0.45;82.77;96162.96;105752;1301;67977;-89
2022/12/08 00:41:18;;;;;;;6.40;3.90;;;;;;;0.48;82.82;96168.25;105843;1301;22637;-89
2022/12/08 00:43:51;;;;;;;4.00;2.10;;;;;;;0.48;82.84;96166.73;105850;1301;27594;-89
2022/12/08 00:46:20;;;;;;;4.90;3.10;;;;;;;0.49;82.75;96164.41;105849;1301;22530;-90
2022/12/08 00:48:51;;;;;;;5.30;3.10;;;;;;;0.51;82.75;96172.76;105782;1301;22515;-89
2022/12/08 00:51:20;;;;;;;4.60;2.70;;;;;;;0.51;82.74;96178.11;105848;1279;25357;-90
2022/12/08 00:53:51;;;;;;;4.80;3.00;;;;;;;0.48;82.99;96179.05;105845;1301;25460;-89
2022/12/08 00:56:22;;;;;;;4.60;3.20;;;;;;;0.48;82.98;96180.09;105802;1301;23786;-89
2022/12/08 00:58:51;;;;;;;5.50;3.10;;;;;;;0.46;83.33;96181.77;105767;1301;22516;-89
2022/12/08 01:01:21;;;;;;;5.80;3.20;;;;;;;0.45;83.47;96184.91;105852;1300;22745;-89
2022/12/08 01:03:52;;;;;;;4.30;2.30;;;;;;;0.45;83.27;96174.28;105877;1296;22453;-88
2022/12/08 01:06:23;;;;;;;4.90;3.10;;;;;;;0.47;83.48;96180.95;105871;1301;22508;-90
2022/12/08 01:08:51;;;;;;;5.70;3.80;;;;;;;0.46;83.19;96185.89;105841;1295;28415;-89
2022/12/08 01:11:23;;;;;;;4.70;3.10;;;;;;;0.44;83.13;96181.88;105852;1296;22453;-88
2022/12/08 01:13:53;;;;;;;7.20;4.20;;;;;;;0.45;83.35;96181.23;105875;1289;22576;-90
2022/12/08 01:16:23;;;;;;;5.40;3.40;;;;;;;0.46;83.19;96181.56;105826;1294;22525;-89
2022/12/08 01:18:56;;;;;;;5.40;2.30;;;;;;;0.44;83.34;96182.45;105843;1281;22445;-88
2022/12/08 01:21:29;;;;;;;7.00;4.20;;;;;;;0.42;83.33;96182.13;105886;1301;23269;-89
2022/12/08 01:24:01;;;;;;;5.60;3.00;;;;;;;0.41;83.34;96177.86;105863;1298;22472;-88
2022/12/08 01:26:32;;;;;;;7.50;3.90;;;;;;;0.41;83.27;96181.59;105773;1294;98273;-90
2022/12/08 01:29:00;;;;;;;4.90;3.70;;;;;;;0.42;83.44;96185.30;105801;1300;26563;-89
2022/12/08 01:31:31;;;;;;;5.20;2.60;;;;;;;0.44;83.35;96180.41;105875;1301;22517;-88
2022/12/08 01:34:00;;;;;;;6.40;3.90;;;;;;;0.47;83.21;96180.27;105855;1301;22509;-89
2022/12/08 01:36:35;;;;;;;6.60;3.50;;;;;;;0.46;83.13;96175.86;105821;1295;22900;-89
2022/12/08 01:39:07;;;;;;;4.30;2.90;;;;;;;0.46;83.13;96181.66;105852;1279;22500;-88
2022/12/08 01:41:38;;;;;;;5.00;3.00;;;;;;;0.44;83.27;96178.79;105855;1301;22759;-88
2022/12/08 01:44:39;;;;;;;4.40;2.70;;;;;;;0.42;83.19;96178.85;105865;1300;22491;-88
2022/12/08 01:47:09;;;;;;;5.50;2.70;;;;;;;0.41;83.48;96173.92;105707;1303;44603;-89
2022/12/08 01:49:40;;;;;;;6.10;3.30;;;;;;;0.40;83.47;96174.45;105847;1279;25372;-87
2022/12/08 01:52:15;;;;;;;3.70;2.80;;;;;;;0.42;83.20;96168.81;105859;1301;26632;-88
2022/12/08 01:54:49;;;;;;;5.70;3.00;;;;;;;0.39;83.37;96176.31;105867;1301;22471;-88
2022/12/08 01:57:23;;;;;;;5.90;3.10;;;;;;;0.36;83.62;96178.39;105764;1289;30053;-87
2022/12/08 02:00:00;;;;;;;5.00;2.90;;;;;;;0.35;83.72;96179.60;105818;1285;24243;-88
2022/12/08 02:02:36;;;;;;;3.80;2.70;;;;;;;0.33;83.95;96177.84;105863;1301;22474;-89
2022/12/08 02:05:07;;;;;;;2.70;1.90;;;;;;;0.36;84.02;96178.70;105897;1301;22599;-88
2022/12/08 02:07:37;;;;;;;2.70;2.20;;;;;;;0.38;84.00;96180.67;105808;1295;26456;-88
2022/12/08 02:10:13;;;;;;;3.50;2.60;;;;;;;0.40;83.91;96183.02;105888;1295;24978;-87
2022/12/08 02:12:42;;;;;;;3.00;2.30;;;;;;;0.44;83.82;96180.56;105879;1301;22472;-89
2022/12/08 02:15:15;;;;;;;5.10;2.80;;;;;;;0.42;83.81;96173.48;105871;1301;22470;-88
2022/12/08 02:18:00;;;;;;;3.20;2.10;;;;;;;0.40;83.71;96176.27;105779;1286;24262;-88
2022/12/08 02:20:45;;;;;;;4.90;2.70;;;;;;;0.35;83.65;96169.92;105820;1301;22510;-89
2022/12/08 02:23:28;;;;;;;5.10;2.40;;;;;;;0.32;83.85;96171.48;105839;1285;22512;-88
2022/12/08 02:26:21;;;;;;;4.50;2.60;;;;;;;0.33;83.95;96165.12;105835;1293;25243;-89
2022/12/08 02:29:10;;;;;;;3.20;2.00;;;;;;;0.30;83.84;96170.94;104496;1292;1746977;-89
2022/12/08 02:31:55;;;;;;;4.30;2.40;;;;;;;0.31;83.74;96170.65;105788;1279;26538;-88
2022/12/08 02:34:29;;;;;;;4.00;2.80;;;;;;;0.30;83.86;96175.08;105855;1300;22716;-89
2022/12/08 02:37:09;;;;;;;4.90;3.40;;;;;;;0.25;83.69;96180.50;105793;1301;25214;-88
2022/12/08 02:39:46;;;;;;;5.60;3.30;;;;;;;0.20;83.77;96186.92;105843;1300;23747;-88
2022/12/08 02:42:25;;;;;;;4.60;3.20;;;;;;;0.16;83.75;96194.27;105843;1301;22455;-89
2022/12/08 02:45:01;;;;;;;4.60;2.50;;;;;;;0.08;83.97;96191.98;105848;1301;22472;-88
2022/12/08 02:47:31;;;;;;;3.80;2.00;;;;;;;0.10;83.79;96189.94;105833;1300;28082;-88
2022/12/08 02:50:00;;;;;;;3.50;2.10;;;;;;;0.17;83.79;96191.95;105852;1279;22691;-88
2022/12/08 02:52:47;;;;;;;4.20;2.50;;;;;;;0.16;83.61;96190.64;105872;1279;22594;-88
2022/12/08 02:55:29;;;;;;;4.00;2.20;;;;;;;0.20;83.58;96191.34;105882;1280;25851;-88
2022/12/08 02:58:13;;;;;;;4.00;1.90;;;;;;;0.22;83.56;96189.58;105825;1295;23146;-89
2022/12/08 03:00:55;;;;;;;3.80;2.70;;;;;;;0.21;83.46;96191.93;105844;1301;24393;-88
2022/12/08 03:03:31;;;;;;;5.50;3.40;;;;;;;0.16;83.34;96194.48;105871;1279;24052;-89
2022/12/08 03:06:10;;;;;;;2.50;2.10;;;;;;;0.08;83.51;96193.59;105854;1301;23366;-89
2022/12/08 03:08:50;;;;;;;4.00;2.50;;;;;;;0.08;83.68;96195.10;103893;1301;2617492;-88
2022/12/08 03:11:24;;;;;;;4.10;2.60;;;;;;;0.08;83.71;96197.23;105862;1301;22492;-88
2022/12/08 03:13:55;;;;;;;3.80;2.90;;;;;;;0.08;83.80;96194.10;105866;1301;22464;-89
2022/12/08 03:16:26;;;;;;;5.10;2.60;;;;;;;0.10;83.73;96193.98;105797;1282;22501;-88
2022/12/08 03:19:05;;;;;;;5.90;3.50;;;;;;;0.13;83.90;96191.67;105662;1303;25561;-89
2022/12/08 03:21:35;;;;;;;5.90;3.90;;;;;;;0.19;84.04;96192.42;105615;1300;22510;-88
2022/12/08 03:24:10;;;;;;;4.30;3.40;;;;;;;0.20;84.07;96192.59;105712;1295;26596;-89
2022/12/08 03:26:47;;;;;;;4.20;2.90;;;;;;;0.18;83.98;96195.42;105670;1297;22489;-88
2022/12/08 03:29:20;;;;;;;4.30;2.50;;;;;;;0.14;84.13;96191.46;105871;1285;23775;-89
2022/12/08 03:31:53;;;;;;;5.00;2.90;;;;;;;0.15;84.28;96188.23;105862;1300;22491;-89
2022/12/08 03:34:26;;;;;;;3.40;2.50;;;;;;;0.19;84.31;96189.76;105852;1298;22967;-88
2022/12/08 03:36:55;;;;;;;4.10;2.60;;;;;;;0.15;84.23;96187.40;105800;1301;28122;-88
2022/12/08 03:39:24;;;;;;;3.20;1.90;;;;;;;0.10;84.30;96183.47;105826;1300;25257;-88
2022/12/08 03:41:53;;;;;;;3.90;2.70;;;;;;;0.11;84.64;96185.42;105812;1296;22970;-88
2022/12/08 03:44:24;;;;;;;4.80;2.50;;;;;;;0.12;84.70;96185.07;105883;1285;22465;-89
2022/12/08 03:46:52;;;;;;;6.40;2.40;;;;;;;0.12;84.76;96183.75;105774;1299;106547;-88
2022/12/08 03:49:22;;;;;;;4.50;2.80;;;;;;;0.16;84.87;96181.39;105892;1294;22481;-89
2022/12/08 03:51:51;;;;;;;5.10;3.10;;;;;;;0.12;84.71;96182.27;105819;1297;22458;-88
2022/12/08 03:54:20;;;;;;;3.80;2.00;;;;;;;0.05;84.84;96186.02;105846;1301;22454;-88
2022/12/08 03:56:49;;;;;;;4.40;3.30;;;;;;;0.04;84.99;96186.25;105755;1301;61282;-88
2022/12/08 03:59:17;;;;;;;5.90;3.20;;;;;;;0.01;84.93;96186.76;105792;1304;22966;-89
2022/12/08 04:01:46;;;;;;;5.30;3.80;;;;;;;-0.04;85.20;96187.30;105855;1295;22488;-89
2022/12/08 04:04:14;;;;;;;4.20;2.80;;;;;;;-0.06;85.32;96185.52;105838;1301;22468;-89
2022/12/08 04:06:43;;;;;;;6.20;3.10;;;;;;;-0.03;85.54;96189.77;105826;1291;24447;-88
2022/12/08 04:09:11;;;;;;;5.80;3.00;;;;;;;-0.02;85.41;96188.63;105831;1301;22475;-89
2022/12/08 04:11:43;;;;;;;6.80;3.80;;;;;;;0.00;85.49;96187.26;105817;1276;25280;-88
2022/12/08 04:14:12;;;;;;;5.50;3.90;;;;;;;0.00;85.57;96184.17;105888;1301;22456;-89
2022/12/08 04:16:40;;;;;;;6.20;3.80;;;;;;;0.02;85.62;96184.11;105855;1297;25226;-89
2022/12/08 04:19:14;;;;;;;5.30;3.50;;;;;;;0.03;85.59;96187.63;105853;1301;22601;-88
2022/12/08 04:21:44;;;;;;;4.90;3.50;;;;;;;0.01;85.70;96186.80;105878;1299;26567;-89
2022/12/08 04:24:12;;;;;;;5.60;3.80;;;;;;;0.05;85.57;96186.31;105835;1292;23291;-89
2022/12/08 04:26:41;;;;;;;26.60;8.80;;;;;;;0.06;85.67;96189.84;105831;1301;28850;-89
2022/12/08 04:29:11;;;;;;;5.50;3.50;;;;;;;0.03;85.68;96187.63;105810;1283;24272;-89
2022/12/08 04:31:42;;;;;;;4.80;3.70;;;;;;;-0.03;85.60;96193.05;105846;1301;22469;-89
2022/12/08 04:34:12;;;;;;;8.30;3.40;;;;;;;-0.05;85.91;96191.48;105885;1301;22458;-89
2022/12/08 04:36:40;;;;;;;6.00;4.20;;;;;;;-0.07;85.93;96188.38;105816;1301;27143;-88
2022/12/08 04:39:11;;;;;;;6.20;3.90;;;;;;;-0.06;85.84;96193.54;105738;1296;97867;-89
2022/12/08 04:41:40;;;;;;;21.40;7.30;;;;;;;-0.08;86.10;96190.84;105862;1301;22500;-88
2022/12/08 04:44:10;;;;;;;12.00;5.80;;;;;;;-0.07;86.03;96187.85;105843;1301;22456;-90
2022/12/08 04:46:39;;;;;;;8.10;4.70;;;;;;;-0.05;86.20;96190.30;105790;1301;26550;-89
2022/12/08 04:49:08;;;;;;;3.70;2.70;;;;;;;-0.02;86.20;96187.54;105857;1301;25364;-90
2022/12/08 04:51:37;;;;;;;9.10;5.00;;;;;;;-0.01;86.22;96186.36;105823;1301;23546;-90
2022/12/08 04:54:05;;;;;;;4.90;3.40;;;;;;;-0.04;86.20;96186.41;105869;1301;25469;-89
2022/12/08 04:56:40;;;;;;;6.10;4.10;;;;;;;-0.06;86.18;96188.09;105748;1291;102050;-89
2022/12/08 04:59:09;;;;;;;6.40;4.50;;;;;;;-0.08;86.46;96184.79;105793;1300;24125;-90
2022/12/08 05:01:37;;;;;;;12.40;6.60;;;;;;;-0.09;86.47;96189.27;105868;1301;22878;-89
2022/12/08 05:04:06;;;;;;;6.20;3.80;;;;;;;-0.07;86.66;96186.02;105835;1301;22541;-89
2022/12/08 05:06:35;;;;;;;10.40;6.80;;;;;;;-0.06;86.69;96181.98;105604;1291;52831;-85
2022/12/08 05:09:03;;;;;;;8.90;6.80;;;;;;;-0.05;87.01;96180.60;105569;1302;22987;-90
2022/12/08 05:11:34;;;;;;;11.00;9.30;;;;;;;-0.03;86.78;96179.75;105625;1281;22467;-90
2022/12/08 05:14:08;;;;;;;8.10;4.80;;;;;;;-0.04;86.77;96180.95;105609;1296;24355;-90
2022/12/08 05:16:39;;;;;;;7.70;5.30;;;;;;;-0.02;86.85;96179.93;105587;1287;52471;-89
2022/12/08 05:19:10;;;;;;;9.90;7.30;;;;;;;-0.02;86.94;96177.13;105563;1303;26293;-89
2022/12/08 05:21:41;;;;;;;9.00;5.60;;;;;;;-0.04;87.00;96176.50;105597;1294;24254;-90
2022/12/08 05:24:11;;;;;;;53.40;30.00;;;;;;;-0.03;86.97;96177.61;105582;1302;22482;-90
2022/12/08 05:26:39;;;;;;;;;;;;;;;-0.02;87.13;96175.60;105590;1303;99752;-90
2022/12/08 05:29:09;;;;;;;6.80;4.80;;;;;;;-0.05;86.94;96169.28;105675;1303;39117;-90
2022/12/08 05:31:38;;;;;;;7.80;4.90;;;;;;;-0.06;87.12;96168.75;105696;1303;22784;-90
2022/12/08 05:34:08;;;;;;;8.40;5.70;;;;;;;-0.06;87.18;96165.36;105569;1302;24260;-90
2022/12/08 05:36:37;;;;;;;6.20;4.40;;;;;;;-0.08;87.17;96160.11;105637;1303;54870;-90
2022/12/08 05:39:06;;;;;;;7.70;5.30;;;;;;;-0.10;87.38;96162.81;105528;1303;30112;-90
2022/12/08 05:41:35;;;;;;;7.20;5.30;;;;;;;-0.11;87.44;96172.28;105624;1302;22506;-90
2022/12/08 05:44:03;;;;;;;8.40;5.60;;;;;;;-0.11;87.41;96172.22;105676;1303;22460;-89
2022/12/08 05:46:32;;;;;;;7.40;5.10;;;;;;;-0.15;87.32;96169.41;105621;1303;24947;-89
2022/12/08 05:49:03;;;;;;;8.40;5.10;;;;;;;-0.19;87.26;96176.00;105675;1303;22580;-90
2022/12/08 05:51:31;;;;;;;8.00;5.20;;;;;;;-0.23;87.51;96178.82;105697;1293;22478;-90
2022/12/08 05:54:03;;;;;;;7.50;4.80;;;;;;;-0.24;87.73;96176.03;105700;1302;22500;-90
2022/12/08 05:56:31;;;;;;;7.60;4.90;;;;;;;-0.24;87.73;96179.33;105646;1296;24598;-89
2022/12/08 05:59:04;;;;;;;7.90;5.70;;;;;;;-0.21;87.79;96189.20;105834;1293;22455;-90
2022/12/08 06:01:33;;;;;;;10.00;5.30;;;;;;;-0.17;87.72;96194.39;105867;1301;25264;-90
2022/12/08 06:04:03;;;;;;;9.40;5.60;;;;;;;-0.15;87.70;96194.41;105882;1288;22492;-90
2022/12/08 06:06:33;;;;;;;8.80;5.90;;;;;;;-0.15;87.56;96195.21;105819;1300;27141;-90
2022/12/08 06:09:02;;;;;;;;;;;;;;;-0.13;87.77;96198.85;105829;1301;23893;-90
2022/12/08 06:11:32;;;;;;;8.10;5.50;;;;;;;-0.07;87.73;96205.02;105791;1301;22445;-89
2022/12/08 06:14:02;;;;;;;7.30;4.00;;;;;;;-0.02;87.71;96208.08;105828;1295;25284;-90
2022/12/08 06:16:33;;;;;;;4.90;2.80;;;;;;;0.03;87.54;96209.30;105841;1294;23308;-88
2022/12/08 06:19:03;;;;;;;4.70;3.40;;;;;;;0.08;87.21;96203.85;105780;1296;64958;-90
2022/12/08 06:21:35;;;;;;;7.10;4.20;;;;;;;0.13;87.31;96207.78;105862;1298;22461;-89
2022/12/08 06:24:04;;;;;;;6.90;4.50;;;;;;;0.11;87.24;96204.88;105836;1301;23990;-90
2022/12/08 06:26:34;;;;;;;4.00;2.70;;;;;;;0.14;87.05;96210.23;105769;1304;24142;-89
2022/12/08 06:29:04;;;;;;;7.90;5.30;;;;;;;0.17;87.22;96214.16;105627;1301;61583;-90
2022/12/08 06:31:33;;;;;;;9.30;5.70;;;;;;;0.16;86.93;96216.70;105723;1303;22483;-90
2022/12/08 06:34:02;;;;;;;8.30;5.10;;;;;;;0.16;86.91;96210.97;105639;1284;22459;-89
2022/12/08 06:36:33;;;;;;;5.80;3.70;;;;;;;0.18;87.03;96217.56;105686;1281;25364;-88
2022/12/08 06:39:03;;;;;;;7.90;5.50;;;;;;;0.19;86.96;96207.23;105813;1301;28137;-89
2022/12/08 06:42:42;;;;;;;7.80;5.00;;;;;;;0.26;87.05;96208.67;105827;1301;22581;-89
2022/12/08 06:44:23;;;;;;;6.80;4.40;;;;;;;0.23;86.82;96210.77;105860;1296;23804;-90
2022/12/08 06:46:52;;;;;;;7.80;5.10;;;;;;;0.23;86.79;96210.92;105839;1301;22451;-89
2022/12/08 06:49:24;;;;;;;10.20;6.10;;;;;;;0.25;86.94;96211.47;105830;1301;22469;-90
2022/12/08 06:51:52;;;;;;;9.70;5.90;;;;;;;0.27;86.97;96213.77;105832;1300;22613;-90
2022/12/08 06:54:21;;;;;;;8.90;5.60;;;;;;;0.26;86.81;96219.75;105837;1301;25248;-90
2022/12/08 06:56:49;;;;;;;8.50;5.80;;;;;;;0.29;86.82;96216.11;105822;1301;25772;-90
2022/12/08 06:59:18;;;;;;;8.70;5.70;;;;;;;0.41;86.70;96220.27;105594;1302;22492;-90
2022/12/08 07:01:48;;;;;;;9.40;5.80;;;;;;;0.57;86.74;96221.14;105556;1302;22510;-90
2022/12/08 07:04:16;;;;;;;9.00;6.40;;;;;;;0.88;86.72;96220.57;105542;1294;22478;-90
2022/12/08 07:06:46;;;;;;;9.70;5.80;;;;;;;1.14;86.29;96221.89;105594;1301;26042;-92
2022/12/08 07:09:20;;;;;;;7.30;5.30;;;;;;;1.34;85.72;96227.52;105552;1302;22513;-90
2022/12/08 07:11:51;;;;;;;8.00;5.20;;;;;;;1.52;85.23;96227.91;105572;1302;22490;-91
2022/12/08 07:14:23;;;;;;;8.50;5.80;;;;;;;1.50;84.60;96227.66;105544;1300;22486;-91
2022/12/08 07:16:54;;;;;;;8.00;6.00;;;;;;;1.49;84.37;96231.50;105278;1294;2037871;-88
2022/12/08 07:19:23;;;;;;;8.00;4.60;;;;;;;1.55;83.97;96228.45;105847;1292;22512;-89
2022/12/08 07:21:51;;;;;;;8.90;6.20;;;;;;;1.54;83.51;96227.52;105818;1301;22458;-91
2022/12/08 07:24:20;;;;;;;9.20;5.10;;;;;;;1.45;83.74;96232.36;105871;1301;23938;-90
2022/12/08 07:26:48;;;;;;;8.80;4.50;;;;;;;1.42;83.32;96226.83;105766;1301;66322;-89
2022/12/08 07:29:23;;;;;;;7.20;4.80;;;;;;;1.31;82.86;96228.10;105814;1301;22499;-89
2022/12/08 07:31:52;;;;;;;8.20;5.80;;;;;;;1.26;82.64;96231.64;105847;1301;22472;-91
2022/12/08 07:34:24;;;;;;;6.70;4.90;;;;;;;1.45;83.02;96230.42;105810;1292;21746;-90
2022/12/08 07:36:53;;;;;;;7.20;4.60;;;;;;;1.56;82.17;96223.29;105774;1301;57953;-89
2022/12/08 07:39:22;;;;;;;6.90;4.60;;;;;;;1.93;82.32;96230.08;105857;1294;22493;-90
2022/12/08 07:41:51;;;;;;;7.70;5.40;;;;;;;2.05;81.11;96231.73;105842;1301;23591;-91
2022/12/08 07:44:24;;;;;;;10.00;4.80;;;;;;;2.09;80.96;96231.43;105881;1301;22527;-90
2022/12/08 07:46:52;;;;;;;7.30;5.10;;;;;;;2.37;81.04;96228.63;105792;1301;51922;-90
2022/12/08 07:49:21;;;;;;;7.70;4.40;;;;;;;2.33;80.03;96227.09;105846;1286;22478;-90
2022/12/08 07:51:52;;;;;;;8.70;5.50;;;;;;;2.17;79.45;96226.04;105818;1300;22765;-91
2022/12/08 07:54:20;;;;;;;9.00;5.50;;;;;;;2.11;79.82;96228.98;105872;1301;22465;-91
2022/12/08 07:56:50;;;;;;;8.40;5.60;;;;;;;2.15;80.16;96232.44;105742;1293;50658;-91
2022/12/08 07:59:19;;;;;;;7.70;4.40;;;;;;;2.20;79.75;96227.54;105605;1303;44309;-90
2022/12/08 08:01:49;;;;;;;5.90;3.70;;;;;;;2.23;79.44;96225.87;105692;1303;22488;-89
2022/12/08 08:04:21;;;;;;;6.60;3.90;;;;;;;2.12;78.28;96224.05;105659;1303;22464;-89
2022/12/08 08:06:50;;;;;;;8.60;4.80;;;;;;;2.01;78.25;96230.29;105621;1303;30764;-90
2022/12/08 08:09:21;;;;;;;6.80;3.90;;;;;;;1.99;78.15;96228.91;105677;1298;22457;-89
2022/12/08 08:11:50;;;;;;;10.50;6.70;;;;;;;1.98;78.36;96230.50;105679;1302;22469;-90
2022/12/08 08:14:21;;;;;;;8.20;5.50;;;;;;;2.10;79.02;96233.48;105621;1303;22475;-90
2022/12/08 08:16:49;;;;;;;5.60;3.50;;;;;;;2.14;78.58;96224.77;105514;1303;77076;-90
2022/12/08 08:19:18;;;;;;;9.80;4.80;;;;;;;1.99;77.64;96225.59;105634;1303;77791;-91
2022/12/08 08:21:46;;;;;;;7.50;4.20;;;;;;;1.91;77.95;96232.02;105601;1303;22454;-89
2022/12/08 08:24:23;;;;;;;6.40;3.50;;;;;;;1.98;77.81;96226.04;105587;1287;24007;-90
2022/12/08 08:26:53;;;;;;;6.30;3.80;;;;;;;2.01;77.55;96232.70;105619;1303;49333;-91
2022/12/08 08:29:22;;;;;;;7.00;3.90;;;;;;;2.00;76.99;96231.48;105842;1303;22505;-90
2022/12/08 08:31:51;;;;;;;6.30;3.90;;;;;;;1.96;76.65;96231.49;105844;1301;22919;-90
2022/12/08 08:34:22;;;;;;;5.80;4.10;;;;;;;1.92;76.76;96223.83;105877;1293;22454;-90
2022/12/08 08:36:51;;;;;;;5.20;3.30;;;;;;;1.88;76.36;96222.30;105778;1301;74639;-90
2022/12/08 08:39:24;;;;;;;4.90;3.50;;;;;;;1.85;76.19;96223.14;105814;1301;22497;-90
2022/12/08 08:41:53;;;;;;;5.30;3.10;;;;;;;1.83;76.14;96225.05;105820;1301;24270;-89
2022/12/08 08:44:21;;;;;;;6.00;3.50;;;;;;;1.82;76.06;96228.41;105858;1296;22528;-90
2022/12/08 08:46:52;;;;;;;5.20;3.80;;;;;;;1.83;75.76;96236.52;105816;1301;26093;-90
2022/12/08 08:49:22;;;;;;;4.20;2.70;;;;;;;1.83;75.76;96243.16;105832;1300;22480;-89
2022/12/08 08:51:50;;;;;;;;;;;;;;;1.82;75.38;96235.65;105891;1283;24627;-90
2022/12/08 08:54:22;;;;;;;5.70;3.40;;;;;;;1.85;76.23;96236.45;105885;1301;22448;-89
2022/12/08 08:56:51;;;;;;;7.60;4.30;;;;;;;1.91;76.14;96232.61;105784;1301;30338;-89
2022/12/08 08:59:21;;;;;;;5.30;3.30;;;;;;;1.96;75.82;96229.45;105949;1296;22487;-89
2022/12/08 09:01:50;;;;;;;6.10;4.50;;;;;;;1.95;75.29;96231.40;105864;1293;22495;-89
2022/12/08 09:04:19;;;;;;;7.50;5.00;;;;;;;1.95;75.40;96227.18;105873;1301;22467;-90
2022/12/08 09:06:49;;;;;;;6.30;4.40;;;;;;;2.00;75.87;96227.80;105718;1304;80820;-90
2022/12/08 09:09:20;;;;;;;7.30;3.60;;;;;;;2.09;76.19;96231.42;105803;1299;27277;-90
2022/12/08 09:11:48;;;;;;;7.20;4.20;;;;;;;2.13;75.41;96219.90;105847;1292;23251;-90
2022/12/08 09:14:17;;;;;;;5.90;4.10;;;;;;;2.16;75.24;96221.98;105868;1285;22488;-90
2022/12/08 09:16:45;;;;;;;5.80;3.80;;;;;;;2.21;74.94;96214.59;105744;1307;25786;-90
2022/12/08 09:19:13;;;;;;;5.90;4.30;;;;;;;2.26;75.22;96218.35;105587;1308;28098;-89
2022/12/08 09:21:42;;;;;;;6.20;3.60;;;;;;;2.34;75.72;96212.21;105585;1307;22464;-90
2022/12/08 09:24:15;;;;;;;5.70;3.10;;;;;;;2.35;74.77;96215.52;105627;1299;22459;-90
2022/12/08 09:26:44;;;;;;;6.60;4.00;;;;;;;2.32;74.04;96210.87;105627;1308;22611;-90
2022/12/08 09:29:13;;;;;;;5.10;3.80;;;;;;;2.33;74.23;96204.04;105611;1306;26653;-90
2022/12/08 09:31:43;;;;;;;5.70;3.80;;;;;;;2.36;74.32;96208.10;105625;1302;22455;-90
2022/12/08 09:34:12;;;;;;;3.70;3.30;;;;;;;2.35;73.89;96206.31;105711;1296;22525;-90
2022/12/08 09:36:41;;;;;;;4.50;3.00;;;;;;;2.37;73.90;96206.55;105598;1288;22445;-89
2022/12/08 09:39:15;;;;;;;6.00;3.00;;;;;;;2.35;73.23;96203.59;105575;1285;23821;-89
2022/12/08 09:41:48;;;;;;;5.20;3.20;;;;;;;2.38;72.72;96194.39;105583;1300;22496;-89
2022/12/08 09:44:48;;;;;;;6.40;3.30;;;;;;;2.42;71.99;96192.67;105664;1281;23793;-90
2022/12/08 09:47:22;;;;;;;4.10;2.30;;;;;;;2.45;72.08;96190.16;105539;1302;45929;-90
2022/12/08 09:49:58;;;;;;;5.50;3.30;;;;;;;2.48;71.90;96186.32;105596;1304;22493;-90
2022/12/08 09:52:31;;;;;;;3.60;2.30;;;;;;;2.48;71.41;96185.59;105614;1292;22477;-90
2022/12/08 09:55:10;;;;;;;5.40;3.30;;;;;;;2.46;71.48;96182.95;105640;1303;22530;-90
2022/12/08 09:57:39;;;;;;;4.50;2.80;;;;;;;2.48;71.80;96183.03;105529;1288;34507;-89
2022/12/08 10:00:13;;;;;;;3.90;2.50;;;;;;;2.51;71.79;96179.52;105628;1298;22727;-90
2022/12/08 10:02:42;;;;;;;4.50;3.20;;;;;;;2.53;71.25;96181.95;105624;1293;22479;-90
2022/12/08 10:05:13;;;;;;;5.00;3.10;;;;;;;2.54;71.17;96184.09;105674;1303;22518;-90
2022/12/08 10:07:47;;;;;;;4.30;2.60;;;;;;;2.57;71.31;96182.56;105554;1303;57303;-90
2022/12/08 10:10:25;;;;;;;4.50;3.30;;;;;;;2.64;71.61;96173.33;105614;1291;22461;-90
2022/12/08 10:13:02;;;;;;;3.90;2.50;;;;;;;2.75;72.06;96171.10;105568;1284;22473;-90
2022/12/08 10:15:39;;;;;;;4.30;2.80;;;;;;;2.86;71.30;96164.21;105619;1303;25402;-90
2022/12/08 10:18:16;;;;;;;4.00;2.70;;;;;;;2.98;71.15;96155.16;105556;1302;22512;-90
2022/12/08 10:20:47;;;;;;;4.70;2.90;;;;;;;3.07;71.06;96152.80;105669;1294;25209;-90
2022/12/08 10:23:24;;;;;;;3.30;2.50;;;;;;;3.14;70.64;96150.92;105631;1303;22474;-90
2022/12/08 10:25:58;;;;;;;7.50;5.30;;;;;;;3.20;70.83;96145.23;105545;1303;22448;-89
2022/12/08 10:28:26;;;;;;;5.00;3.80;;;;;;;3.35;71.32;96147.26;105472;1281;77251;-90
2022/12/08 10:30:55;;;;;;;4.20;2.80;;;;;;;3.47;70.93;96142.16;105619;1286;22636;-88
2022/12/08 10:33:24;;;;;;;4.90;3.40;;;;;;;3.62;70.71;96146.38;105590;1302;23681;-91
2022/12/08 10:35:55;;;;;;;9.00;5.30;;;;;;;3.75;70.54;96142.42;105638;1291;23128;-90
2022/12/08 10:38:29;;;;;;;5.20;3.70;;;;;;;3.77;70.39;96142.80;105542;1301;99997;-91
2022/12/08 10:41:03;;;;;;;13.30;6.60;;;;;;;3.75;70.48;96137.23;105593;1297;22475;-90
2022/12/08 10:43:35;;;;;;;10.90;6.30;;;;;;;3.72;70.10;96135.27;105646;1292;22479;-90
2022/12/08 10:46:12;;;;;;;6.50;3.40;;;;;;;3.72;70.66;96140.87;105628;1301;22520;-90
2022/12/08 10:48:50;;;;;;;4.70;3.40;;;;;;;3.77;70.69;96136.20;105546;1292;47344;-90
2022/12/08 10:51:28;;;;;;;5.70;3.50;;;;;;;3.83;71.06;96135.08;105647;1301;24268;-90
2022/12/08 10:53:57;;;;;;;5.10;3.50;;;;;;;3.92;70.59;96128.90;105641;1303;22458;-91
2022/12/08 10:56:27;;;;;;;5.80;3.60;;;;;;;3.98;71.30;96130.09;105622;1303;22470;-90
2022/12/08 10:59:15;;;;;;;6.30;3.50;;;;;;;4.05;71.68;96124.63;105649;1294;44226;-91
2022/12/08 11:01:47;;;;;;;4.90;3.40;;;;;;;4.08;71.02;96126.60;105756;1289;22467;-91
2022/12/08 11:04:19;;;;;;;3.10;2.80;;;;;;;4.07;71.03;96128.53;105692;1296;22509;-90
2022/12/08 11:06:49;;;;;;;4.50;3.30;;;;;;;4.06;71.37;96124.47;105763;1304;100985;-90
2022/12/08 11:09:33;;;;;;;3.60;2.70;;;;;;;3.99;70.62;96127.27;105832;1295;22566;-90
2022/12/08 11:12:08;;;;;;;4.70;3.30;;;;;;;3.92;70.87;96122.40;105814;1299;22887;-90
2022/12/08 11:14:49;;;;;;;4.80;2.80;;;;;;;3.87;70.57;96118.44;105840;1301;26648;-88
2022/12/08 11:17:26;;;;;;;5.90;3.80;;;;;;;3.76;69.73;96121.27;105780;1286;41936;-90
2022/12/08 11:20:00;;;;;;;5.00;3.60;;;;;;;3.67;70.20;96115.77;105865;1301;22620;-89
2022/12/08 11:22:32;;;;;;;4.90;3.60;;;;;;;3.68;70.77;96115.78;105814;1284;22464;-90
2022/12/08 11:25:20;;;;;;;5.50;3.90;;;;;;;3.68;70.87;96111.43;105818;1301;22502;-90
2022/12/08 11:27:51;;;;;;;5.90;4.20;;;;;;;3.68;70.80;96108.33;105811;1289;24267;-89
2022/12/08 11:30:22;;;;;;;7.70;4.90;;;;;;;3.64;70.89;96109.80;105765;1301;22500;-90
2022/12/08 11:32:54;;;;;;;6.00;4.00;;;;;;;3.56;70.75;96106.43;105859;1301;23930;-89
2022/12/08 11:35:28;;;;;;;6.80;4.20;;;;;;;3.50;71.31;96106.61;105853;1301;22489;-89
2022/12/08 11:38:04;;;;;;;7.00;4.70;;;;;;;3.44;71.27;96107.02;105814;1301;22476;-90
2022/12/08 11:40:37;;;;;;;7.50;4.60;;;;;;;3.40;71.61;96104.89;105834;1285;22485;-89
2022/12/08 11:43:15;;;;;;;6.50;4.40;;;;;;;3.45;71.81;96106.55;105843;1301;22473;-89
2022/12/08 11:45:49;;;;;;;8.00;4.70;;;;;;;3.54;71.79;96099.00;105849;1300;24401;-89
2022/12/08 11:48:23;;;;;;;4.30;3.00;;;;;;;3.63;70.99;96102.87;105788;1301;25924;-88
2022/12/08 11:50:56;;;;;;;6.20;4.10;;;;;;;3.65;68.99;96101.93;105825;1301;23207;-89
2022/12/08 11:53:33;;;;;;;6.00;4.40;;;;;;;3.67;69.61;96103.75;105861;1300;22484;-89
2022/12/08 11:56:12;;;;;;;6.00;3.60;;;;;;;3.77;70.01;96107.20;105863;1301;22505;-88
2022/12/08 11:58:47;;;;;;;7.80;4.60;;;;;;;3.85;69.19;96104.05;105772;1301;29703;-88